Carnival Splendor — 3EUS — position and weather

sailwx.info

Track history (hours):
 
Tides and Currents Weather Stations Pressure Air Temp Water Temp Dewpoint Dewpoint Depression Visibility Wind Speed Wind Dir Waves Ship Positions

Carnival Splendor

Last reported at 2017-Dec-17 13:59 UTC. Time now 2017-Dec-17 14:07 UTC.
Position N 25°47' W 080°10'.

Length 290 m; draft 8.3 m.

Type: Ship. MMSI: 372808000.

Date/timePositionNaut miles runAvg speedWind from/ knotsBaromVisibWave heightAir tempDewpointWater temp
2017-Dec-17 13:59N 25°47' W 080°10'0 0.0
2017-Dec-17 13:29N 25°47' W 080°10'0 0.0
2017-Dec-17 12:58N 25°47' W 080°10'0 0.0
2017-Dec-17 12:28N 25°47' W 080°10'0 0.0
2017-Dec-17 11:58N 25°47' W 080°10'0 0.0
2017-Dec-17 11:28N 25°47' W 080°10'0 0.0
2017-Dec-17 11:00N 25°47' W 080°10'1 1.3
2017-Dec-17 10:30N 25°46' W 080°10'5 9.3
2017-Dec-17 10:00N 25°46' W 080°04'510.9
2017-Dec-17 09:30N 25°45' W 079°59'713.6
2017-Dec-17 09:01N 25°39' W 079°55'816.7
2017-Dec-17 08:31N 25°30' W 079°55'917.2
2017-Dec-17 08:00N 25°22' W 079°55'  
2017-Dec-12 23:29N 20°22' W 087°04'715.1
2017-Dec-12 23:00N 20°28' W 087°01'2 4.0
2017-Dec-12 22:29N 20°29' W 086°59'0 0.0
2017-Dec-12 21:59N 20°29' W 086°59'0 0.0
2017-Dec-12 21:28N 20°29' W 086°59'0 0.0
2017-Dec-12 20:58N 20°29' W 086°59'0 0.0
2017-Dec-12 20:28N 20°29' W 086°59'0 0.0
2017-Dec-12 19:58N 20°29' W 086°59'0 0.0
2017-Dec-12 19:30N 20°29' W 086°59'0 0.0
2017-Dec-12 19:00N 20°29' W 086°59'0 0.0
2017-Dec-12 18:30N 20°29' W 086°59'0 0.0
2017-Dec-12 18:00N 20°29' W 086°59'0 0.0
2017-Dec-12 17:30N 20°29' W 086°59'0 0.0
2017-Dec-12 16:59N 20°29' W 086°59'0 0.0
2017-Dec-12 16:29N 20°29' W 086°59'0 0.0
2017-Dec-12 15:59N 20°29' W 086°59'0 0.0
2017-Dec-12 15:29N 20°29' W 086°59'0 0.0
2017-Dec-12 14:59N 20°29' W 086°59'0 0.0
2017-Dec-12 14:28N 20°29' W 086°59'0 0.0
2017-Dec-12 13:58N 20°29' W 086°59'0 0.0
2017-Dec-12 13:28N 20°29' W 086°59'0 0.0
2017-Dec-12 12:58N 20°29' W 086°59'0 0.2
2017-Dec-12 12:30N 20°29' W 086°59'2 4.4
2017-Dec-12 12:00N 20°31' W 086°59'5 9.4
2017-Dec-12 11:30N 20°35' W 086°58'510.5
2017-Dec-12 11:00N 20°39' W 086°55'47613.5
2017-Dec-10 23:38N 25°21' W 079°57'215.4
2017-Dec-10 23:30N 25°23' W 079°57'1115.5
2017-Dec-10 22:48N 25°34' W 079°57'515.5
2017-Dec-10 22:31N 25°38' W 079°57'714.6
2017-Dec-10 22:01N 25°44' W 080°02'611.8
2017-Dec-10 21:30N 25°46' W 080°08'2 4.0
2017-Dec-10 20:59N 25°47' W 080°10'0 0.0
2017-Dec-10 20:28N 25°47' W 080°10'0 0.0
2017-Dec-10 19:58N 25°47' W 080°10'0 0.0
2017-Dec-10 19:28N 25°47' W 080°10'0 0.0
2017-Dec-10 18:58N 25°47' W 080°10'0 0.0
2017-Dec-10 18:28N 25°47' W 080°10'0 0.0
2017-Dec-10 18:00N 25°47' W 080°10'0 0.0
2017-Dec-10 17:27N 25°47' W 080°10'0 0.0
2017-Dec-10 16:57N 25°47' W 080°10'0 0.0
2017-Dec-10 16:30N 25°47' W 080°10'0 0.0
2017-Dec-10 15:59N 25°47' W 080°10'0 0.0
2017-Dec-10 15:29N 25°47' W 080°10'0 0.0
2017-Dec-10 14:59N 25°47' W 080°10'0 0.0
2017-Dec-10 14:29N 25°47' W 080°10'0 0.0
2017-Dec-10 13:59N 25°47' W 080°10'0 0.0
2017-Dec-10 13:28N 25°47' W 080°10'0 0.0
2017-Dec-10 12:55N 25°47' W 080°10'0 0.0
2017-Dec-10 12:25N 25°47' W 080°10'0 0.0
2017-Dec-10 11:58N 25°47' W 080°10'0 0.0
2017-Dec-10 11:28N 25°47' W 080°10'0 0.0
2017-Dec-10 11:00N 25°47' W 080°10'0 0.0
2017-Dec-10 10:28N 25°47' W 080°10'1 1.5
2017-Dec-10 10:00N 25°47' W 080°11'2 4.1
2017-Dec-10 09:30N 25°46' W 080°09'611.6
2017-Dec-10 09:00N 25°47' W 080°03'3 5.8
2017-Dec-10 08:30N 25°48' W 079°60'510.5
2017-Dec-10 08:00N 25°51' W 079°55'510.4
2017-Dec-10 07:30N 25°54' W 079°50'510.7
2017-Dec-10 07:00N 25°57' W 079°45'612.6
2017-Dec-10 06:30N 26°00' W 079°39'713.7
2017-Dec-10 06:00N 26°05' W 079°33'714.5
2017-Dec-10 05:30N 26°11' W 079°29'815.9
2017-Dec-10 05:00N 26°18' W 079°25'  
Track history (hours):
 
Tides and Currents Weather Stations Pressure Air Temp Water Temp Dewpoint Dewpoint Depression Visibility Wind Speed Wind Dir Waves Ship Positions

Carnival Splendor

Last reported at 2017-Dec-17 13:59 UTC. Time now 2017-Dec-17 14:07 UTC.
Position N 25°47' W 080°10'.

Length 290 m; draft 8.3 m.

Type: Ship. MMSI: 372808000.

Date/timePositionNaut miles runAvg speedWind from/ knotsBaromVisibWave heightAir tempDewpointWater temp
2017-Dec-17 13:59N 25°47' W 080°10'0 0.0
2017-Dec-17 13:29N 25°47' W 080°10'0 0.0
2017-Dec-17 12:58N 25°47' W 080°10'0 0.0
2017-Dec-17 12:28N 25°47' W 080°10'0 0.0
2017-Dec-17 11:58N 25°47' W 080°10'0 0.0
2017-Dec-17 11:28N 25°47' W 080°10'0 0.0
2017-Dec-17 11:00N 25°47' W 080°10'1 1.3
2017-Dec-17 10:30N 25°46' W 080°10'5 9.3
2017-Dec-17 10:00N 25°46' W 080°04'510.9
2017-Dec-17 09:30N 25°45' W 079°59'713.6
2017-Dec-17 09:01N 25°39' W 079°55'816.7
2017-Dec-17 08:31N 25°30' W 079°55'917.2
2017-Dec-17 08:00N 25°22' W 079°55'  
2017-Dec-12 23:29N 20°22' W 087°04'715.1
2017-Dec-12 23:00N 20°28' W 087°01'2 4.0
2017-Dec-12 22:29N 20°29' W 086°59'0 0.0
2017-Dec-12 21:59N 20°29' W 086°59'0 0.0
2017-Dec-12 21:28N 20°29' W 086°59'0 0.0
2017-Dec-12 20:58N 20°29' W 086°59'0 0.0
2017-Dec-12 20:28N 20°29' W 086°59'0 0.0
2017-Dec-12 19:58N 20°29' W 086°59'0 0.0
2017-Dec-12 19:30N 20°29' W 086°59'0 0.0
2017-Dec-12 19:00N 20°29' W 086°59'0 0.0
2017-Dec-12 18:30N 20°29' W 086°59'0 0.0
2017-Dec-12 18:00N 20°29' W 086°59'0 0.0
2017-Dec-12 17:30N 20°29' W 086°59'0 0.0
2017-Dec-12 16:59N 20°29' W 086°59'0 0.0
2017-Dec-12 16:29N 20°29' W 086°59'0 0.0
2017-Dec-12 15:59N 20°29' W 086°59'0 0.0
2017-Dec-12 15:29N 20°29' W 086°59'0 0.0
2017-Dec-12 14:59N 20°29' W 086°59'0 0.0
2017-Dec-12 14:28N 20°29' W 086°59'0 0.0
2017-Dec-12 13:58N 20°29' W 086°59'0 0.0
2017-Dec-12 13:28N 20°29' W 086°59'0 0.0
2017-Dec-12 12:58N 20°29' W 086°59'0 0.2
2017-Dec-12 12:30N 20°29' W 086°59'2 4.4
2017-Dec-12 12:00N 20°31' W 086°59'5 9.4
2017-Dec-12 11:30N 20°35' W 086°58'510.5
2017-Dec-12 11:00N 20°39' W 086°55'47613.5
2017-Dec-10 23:38N 25°21' W 079°57'215.4
2017-Dec-10 23:30N 25°23' W 079°57'1115.5
2017-Dec-10 22:48N 25°34' W 079°57'515.5
2017-Dec-10 22:31N 25°38' W 079°57'714.6
2017-Dec-10 22:01N 25°44' W 080°02'611.8
2017-Dec-10 21:30N 25°46' W 080°08'2 4.0
2017-Dec-10 20:59N 25°47' W 080°10'0 0.0
2017-Dec-10 20:28N 25°47' W 080°10'0 0.0
2017-Dec-10 19:58N 25°47' W 080°10'0 0.0
2017-Dec-10 19:28N 25°47' W 080°10'0 0.0
2017-Dec-10 18:58N 25°47' W 080°10'0 0.0
2017-Dec-10 18:28N 25°47' W 080°10'0 0.0
2017-Dec-10 18:00N 25°47' W 080°10'0 0.0
2017-Dec-10 17:27N 25°47' W 080°10'0 0.0
2017-Dec-10 16:57N 25°47' W 080°10'0 0.0
2017-Dec-10 16:30N 25°47' W 080°10'0 0.0
2017-Dec-10 15:59N 25°47' W 080°10'0 0.0
2017-Dec-10 15:29N 25°47' W 080°10'0 0.0
2017-Dec-10 14:59N 25°47' W 080°10'0 0.0
2017-Dec-10 14:29N 25°47' W 080°10'0 0.0
2017-Dec-10 13:59N 25°47' W 080°10'0 0.0
2017-Dec-10 13:28N 25°47' W 080°10'0 0.0
2017-Dec-10 12:55N 25°47' W 080°10'0 0.0
2017-Dec-10 12:25N 25°47' W 080°10'0 0.0
2017-Dec-10 11:58N 25°47' W 080°10'0 0.0
2017-Dec-10 11:28N 25°47' W 080°10'0 0.0
2017-Dec-10 11:00N 25°47' W 080°10'0 0.0
2017-Dec-10 10:28N 25°47' W 080°10'1 1.5
2017-Dec-10 10:00N 25°47' W 080°11'2 4.1
2017-Dec-10 09:30N 25°46' W 080°09'611.6
2017-Dec-10 09:00N 25°47' W 080°03'3 5.8
2017-Dec-10 08:30N 25°48' W 079°60'510.5
2017-Dec-10 08:00N 25°51' W 079°55'510.4
2017-Dec-10 07:30N 25°54' W 079°50'510.7
2017-Dec-10 07:00N 25°57' W 079°45'612.6
2017-Dec-10 06:30N 26°00' W 079°39'713.7
2017-Dec-10 06:00N 26°05' W 079°33'714.5
2017-Dec-10 05:30N 26°11' W 079°29'815.9
2017-Dec-10 05:00N 26°18' W 079°25'  

Dump ship's entire track history